Time;durP1;ratioP1;P1;durP2;ratioP2;P2;SDS_P1;SDS_P2;PMS_P1;PMS_P2;Temp;Humidity;BMP_temperature;BMP_pressure;BME280_temperature;BME280_humidity;BME280_pressure;Samples;Min_cycle;Max_cycle;Signal;HPM_P1;HPM_P2
2021/04/02 00:00:54;;;;;;;17.57;11.08;;;;;;;13.28;52.03;99653.00;1756611;80;21119;-56
2021/04/02 00:14:03;;;;;;;21.65;10.45;;;;;;;13.14;52.70;99626.66;1859428;75;23394;-56
2021/04/02 00:16:34;;;;;;;14.85;10.45;;;;;;;13.05;52.88;99619.70;1756201;80;21103;-56
2021/04/02 00:19:01;;;;;;;15.85;10.72;;;;;;;13.05;52.92;99613.09;1762681;80;21733;-56
2021/04/02 00:21:29;;;;;;;15.35;10.93;;;;;;;13.07;53.03;99607.16;1755691;80;21147;-56
2021/04/02 00:23:57;;;;;;;17.35;10.78;;;;;;;13.08;52.95;99604.86;1749401;80;21143;-57
2021/04/02 00:26:31;;;;;;;17.42;10.08;;;;;;;13.13;52.98;99596.44;1870584;74;22790;-56
2021/04/02 00:29:01;;;;;;;16.67;10.68;;;;;;;13.10;52.94;99596.78;1845042;75;21175;-56
2021/04/02 00:31:28;;;;;;;18.75;10.23;;;;;;;13.10;52.95;99596.28;1850034;75;21191;-57
2021/04/02 00:33:56;;;;;;;15.78;10.32;;;;;;;13.13;53.14;99603.04;1816685;75;21201;-58
2021/04/02 00:36:23;;;;;;;17.92;10.88;;;;;;;13.13;53.16;99586.72;1812958;77;21369;-58
2021/04/02 00:38:54;;;;;;;16.05;10.65;;;;;;;13.13;53.42;99575.30;1785039;78;21219;-57
2021/04/02 00:41:21;;;;;;;17.57;10.82;;;;;;;13.14;53.70;99569.05;1797718;78;21309;-57
2021/04/02 00:43:50;;;;;;;16.27;11.18;;;;;;;13.13;53.79;99556.34;1781947;78;22076;-56
2021/04/02 00:46:19;;;;;;;16.00;10.95;;;;;;;13.10;53.78;99548.73;1795453;78;21214;-57
2021/04/02 00:48:48;;;;;;;17.40;10.32;;;;;;;13.09;53.92;99537.83;1768081;79;21206;-56
2021/04/02 00:51:27;;;;;;;15.63;10.25;;;;;;;13.04;53.98;99535.34;1767943;79;21160;-57
2021/04/02 00:53:56;;;;;;;16.95;10.63;;;;;;;13.03;53.81;99537.64;1764219;79;21222;-58
2021/04/02 00:56:23;;;;;;;15.20;9.58;;;;;;;12.99;53.85;99538.45;1764108;78;21187;-58
2021/04/02 00:58:51;;;;;;;17.65;10.78;;;;;;;12.98;53.90;99539.45;1793891;79;21182;-58
2021/04/02 01:01:18;;;;;;;16.57;10.20;;;;;;;12.98;53.81;99532.86;1790591;78;21111;-58
2021/04/02 01:03:47;;;;;;;16.97;10.93;;;;;;;12.98;53.62;99526.25;1787579;79;21139;-58
2021/04/02 01:06:19;;;;;;;16.60;10.05;;;;;;;12.99;53.45;99526.57;1797600;78;21187;-58
2021/04/02 01:08:47;;;;;;;17.45;10.68;;;;;;;13.00;53.21;99522.95;1790667;78;21602;-58
2021/04/02 01:11:18;;;;;;;20.00;10.85;;;;;;;13.02;53.09;99534.17;1804175;78;21152;-58
2021/04/02 01:13:50;;;;;;;17.73;10.23;;;;;;;13.03;52.87;99529.24;1792220;79;21114;-58
2021/04/02 01:16:27;;;;;;;17.00;10.25;;;;;;;13.04;52.88;99520.31;1796575;78;21443;-58
2021/04/02 01:19:19;;;;;;;19.55;11.50;;;;;;;13.08;52.83;99512.42;1798060;78;21235;-58
2021/04/02 01:22:12;;;;;;;16.50;10.10;;;;;;;13.10;52.78;99503.84;1810490;77;21204;-57
2021/04/02 01:25:12;;;;;;;16.25;10.75;;;;;;;13.14;52.92;99503.02;1781598;78;21110;-58
2021/04/02 01:28:14;;;;;;;18.05;10.88;;;;;;;13.15;52.78;99501.53;1837099;76;21591;-57
2021/04/02 01:30:42;;;;;;;19.17;10.48;;;;;;;13.13;52.78;99499.56;1807994;76;21186;-56
2021/04/02 01:33:10;;;;;;;20.02;12.70;;;;;;;13.09;52.83;99491.61;1844072;76;21638;-56
2021/04/02 01:35:40;;;;;;;19.50;11.10;;;;;;;13.04;52.92;99480.70;1835713;76;21148;-57
2021/04/02 01:38:23;;;;;;;15.05;10.25;;;;;;;13.01;53.03;99479.22;1838636;76;21201;-57
2021/04/02 01:40:55;;;;;;;17.60;10.93;;;;;;;12.98;53.08;99475.58;1794751;78;21189;-56
2021/04/02 01:43:33;;;;;;;18.65;11.22;;;;;;;12.95;52.99;99475.08;1764473;80;21557;-56
2021/04/02 01:46:03;;;;;;;16.02;10.38;;;;;;;12.87;53.12;99471.09;1752957;79;21170;-55
2021/04/02 01:48:31;;;;;;;18.23;11.30;;;;;;;12.74;53.16;99455.22;1772747;78;21460;-55
2021/04/02 01:50:59;;;;;;;16.65;10.50;;;;;;;12.68;53.22;99464.27;1790121;79;22241;-56
2021/04/02 01:53:31;;;;;;;19.02;12.73;;;;;;;12.62;53.36;99461.75;1777398;79;21204;-58
2021/04/02 01:55:59;;;;;;;18.15;11.22;;;;;;;12.55;53.34;99460.23;1793097;76;21144;-57
2021/04/02 01:58:28;;;;;;;17.15;10.18;;;;;;;12.52;53.44;99457.09;1757612;77;21147;-57
2021/04/02 02:00:58;;;;;;;16.90;9.98;;;;;;;12.49;53.46;99459.56;1814121;76;21120;-57
2021/04/02 02:03:29;;;;;;;21.15;11.15;;;;;;;12.43;53.59;99445.67;1834724;77;21568;-57
2021/04/02 02:05:59;;;;;;;19.90;10.95;;;;;;;12.42;53.63;99446.17;1816832;77;21158;-57
2021/04/02 02:08:28;;;;;;;16.80;11.30;;;;;;;12.41;53.62;99445.02;1816857;77;21211;-57
2021/04/02 02:11:10;;;;;;;22.93;11.68;;;;;;;12.40;53.64;99453.89;1789854;79;21129;-57
2021/04/02 02:13:41;;;;;;;17.02;11.05;;;;;;;12.41;53.66;99440.55;1728967;80;22442;-58
2021/04/02 02:16:11;;;;;;;16.95;10.65;;;;;;;12.40;53.57;99428.33;1796236;78;21149;-57
2021/04/02 02:18:41;;;;;;;17.62;10.65;;;;;;;12.40;53.59;99424.38;1792766;78;21161;-56
2021/04/02 02:21:14;;;;;;;16.07;10.18;;;;;;;12.39;53.45;99418.78;1776769;79;21150;-57
2021/04/02 02:23:44;;;;;;;17.85;11.20;;;;;;;12.36;53.34;99427.01;1796257;79;21141;-57
2021/04/02 02:26:15;;;;;;;18.82;10.55;;;;;;;12.31;53.24;99431.11;1794760;78;21261;-57
2021/04/02 02:28:44;;;;;;;16.12;10.45;;;;;;;12.27;53.33;99420.02;1792590;77;21167;-57
2021/04/02 02:31:13;;;;;;;18.55;9.85;;;;;;;12.25;53.25;99428.59;1786254;79;21580;-57
2021/04/02 02:33:43;;;;;;;17.00;10.80;;;;;;;12.21;53.08;99420.17;1826919;77;21128;-56
2021/04/02 02:36:19;;;;;;;19.50;10.82;;;;;;;12.19;52.99;99419.52;1816796;76;21149;-57
2021/04/02 02:38:47;;;;;;;19.40;11.08;;;;;;;12.19;52.71;99420.83;1842492;76;21354;-57
2021/04/02 02:41:16;;;;;;;15.80;9.20;;;;;;;12.20;52.58;99423.78;1814874;77;21698;-57
2021/04/02 02:43:47;;;;;;;19.48;10.03;;;;;;;12.23;52.43;99422.66;1834664;76;21085;-57
2021/04/02 02:46:16;;;;;;;19.92;9.88;;;;;;;12.23;52.09;99418.20;1842362;76;21619;-57
2021/04/02 02:48:49;;;;;;;14.73;8.93;;;;;;;12.23;52.06;99421.34;1797066;79;21138;-57
2021/04/02 02:51:18;;;;;;;16.40;9.63;;;;;;;12.24;52.14;99423.00;1806145;76;21215;-57
2021/04/02 02:53:46;;;;;;;15.72;10.18;;;;;;;12.25;52.06;99435.19;1817379;76;21148;-57
2021/04/02 02:56:16;;;;;;;15.68;10.03;;;;;;;12.25;52.09;99425.95;1838194;76;21215;-57
2021/04/02 02:58:44;;;;;;;18.32;11.10;;;;;;;12.25;52.17;99414.94;1841472;76;21175;-57
2021/04/02 03:01:13;;;;;;;16.48;10.25;;;;;;;12.26;52.06;99418.39;1835147;76;21116;-57
2021/04/02 03:03:42;;;;;;;17.30;10.15;;;;;;;12.26;52.00;99423.16;1839144;76;21155;-57
2021/04/02 03:06:11;;;;;;;16.67;10.32;;;;;;;12.25;51.73;99426.80;1842603;76;21263;-57
2021/04/02 03:08:45;;;;;;;15.93;10.68;;;;;;;12.24;51.68;99428.28;1825269;76;21172;-60
2021/04/02 03:11:16;;;;;;;19.05;10.32;;;;;;;12.23;51.84;99431.38;1789102;79;21196;-60
2021/04/02 03:13:45;;;;;;;14.85;9.93;;;;;;;12.24;51.75;99430.91;1837370;76;21112;-56
2021/04/02 03:16:13;;;;;;;16.52;10.18;;;;;;;12.25;51.74;99426.80;1820136;77;21616;-56
2021/04/02 03:18:42;;;;;;;21.30;11.30;;;;;;;12.24;51.63;99435.69;1813199;76;21155;-56
2021/04/02 03:21:11;;;;;;;16.77;11.45;;;;;;;12.23;51.46;99429.25;1796690;78;21443;-56
2021/04/02 03:23:41;;;;;;;16.85;10.03;;;;;;;12.23;51.51;99429.25;1739214;80;21145;-57
2021/04/02 03:26:09;;;;;;;17.85;10.15;;;;;;;12.23;51.59;99424.80;1738780;80;21121;-58
2021/04/02 03:28:39;;;;;;;16.73;10.65;;;;;;;12.22;51.54;99425.80;1743808;80;21146;-56
2021/04/02 03:31:08;;;;;;;18.30;10.50;;;;;;;12.22;51.54;99423.16;1788722;78;21176;-60
2021/04/02 03:33:43;;;;;;;17.05;10.20;;;;;;;12.23;51.59;99426.61;1806697;77;21145;-57
2021/04/02 03:36:15;;;;;;;19.98;10.08;;;;;;;12.22;51.45;99423.63;1810522;77;21125;-57
2021/04/02 03:38:45;;;;;;;16.85;9.75;;;;;;;12.22;51.40;99415.25;1790940;77;21203;-58
2021/04/02 03:41:19;;;;;;;17.62;10.45;;;;;;;12.21;51.50;99418.85;1808988;77;22400;-57
2021/04/02 03:43:47;;;;;;;18.50;10.68;;;;;;;12.22;51.16;99419.67;1815019;78;21235;-56
2021/04/02 03:46:17;;;;;;;16.30;10.40;;;;;;;12.23;51.05;99429.25;1810123;77;21129;-56
2021/04/02 03:48:47;;;;;;;16.52;9.58;;;;;;;12.21;50.68;99435.18;1795362;77;21741;-56
2021/04/02 03:51:21;;;;;;;16.07;10.60;;;;;;;12.16;50.74;99431.69;1798959;78;21588;-54
2021/04/02 03:54:02;;;;;;;16.57;10.15;;;;;;;12.14;50.79;99427.06;1818510;77;22074;-57
2021/04/02 03:56:33;;;;;;;21.68;11.25;;;;;;;12.13;51.10;99410.08;1815157;77;21196;-57
2021/04/02 03:59:01;;;;;;;15.48;10.70;;;;;;;12.12;51.24;99410.58;1788861;78;21196;-56
2021/04/02 04:01:33;;;;;;;16.77;10.18;;;;;;;12.12;51.01;99425.55;1810040;77;21591;-55
2021/04/02 04:04:02;;;;;;;16.42;10.85;;;;;;;12.11;50.88;99422.09;1792984;78;21219;-55
2021/04/02 04:06:32;;;;;;;15.85;10.30;;;;;;;12.13;50.82;99420.13;1793716;77;21266;-56
2021/04/02 04:09:07;;;;;;;18.42;9.15;;;;;;;12.14;50.79;99419.16;1763313;78;21990;-55
2021/04/02 04:11:36;;;;;;;18.60;10.18;;;;;;;12.16;50.62;99421.14;1815914;77;21175;-56
2021/04/02 04:14:04;;;;;;;16.23;10.48;;;;;;;12.18;50.69;99419.16;1816774;77;21124;-55
2021/04/02 04:16:31;;;;;;;16.70;9.23;;;;;;;12.20;50.52;99417.69;1809046;77;22180;-56
2021/04/02 04:19:01;;;;;;;17.80;9.53;;;;;;;12.21;50.53;99417.53;1762351;79;22767;-57
2021/04/02 04:21:41;;;;;;;15.43;9.85;;;;;;;12.22;50.42;99414.39;1780421;77;21212;-55
2021/04/02 04:24:16;;;;;;;17.00;10.30;;;;;;;12.23;50.26;99409.47;1793087;78;21130;-55
2021/04/02 04:26:46;;;;;;;19.40;10.43;;;;;;;12.21;50.22;99398.26;1758493;78;21235;-56
2021/04/02 04:29:22;;;;;;;13.32;9.50;;;;;;;12.20;50.63;99395.27;1756295;80;21288;-56
2021/04/02 04:31:49;;;;;;;18.62;10.25;;;;;;;12.20;50.88;99390.00;1730438;81;21294;-55
2021/04/02 04:34:17;;;;;;;19.02;9.68;;;;;;;12.17;50.87;99393.80;1754104;79;21234;-55
2021/04/02 04:36:45;;;;;;;24.65;11.33;;;;;;;12.16;50.94;99401.86;1784689;77;21212;-56
2021/04/02 04:39:13;;;;;;;18.77;9.43;;;;;;;12.17;50.87;99404.81;1788540;78;21189;-55
2021/04/02 04:41:41;;;;;;;18.52;10.43;;;;;;;12.19;50.72;99405.00;1766150;78;21584;-57
2021/04/02 04:44:10;;;;;;;15.13;9.13;;;;;;;12.22;50.52;99406.48;1746036;78;21212;-57
2021/04/02 04:46:38;;;;;;;18.30;9.10;;;;;;;12.23;50.90;99392.33;1794802;78;21275;-55
2021/04/02 04:49:06;;;;;;;18.37;10.25;;;;;;;12.23;51.25;99393.64;1793498;78;21223;-55
2021/04/02 04:51:34;;;;;;;17.12;8.50;;;;;;;12.23;50.42;99396.28;1790805;78;21416;-55
2021/04/02 04:54:01;;;;;;;17.17;9.93;;;;;;;12.23;50.31;99394.46;1793471;78;21165;-57
2021/04/02 04:56:31;;;;;;;18.32;9.95;;;;;;;12.25;50.20;99389.03;1771033;79;21184;-56
2021/04/02 04:59:02;;;;;;;20.77;10.08;;;;;;;12.29;50.04;99386.90;1790528;78;21161;-56
2021/04/02 05:01:36;;;;;;;17.90;9.90;;;;;;;12.32;49.87;99399.28;1774479;78;21478;-56
2021/04/02 05:14:59;;;;;;;21.95;9.70;;;;;;;12.33;50.37;99393.53;1870377;74;21904;-55
2021/04/02 05:17:27;;;;;;;15.65;9.48;;;;;;;12.31;50.38;99394.19;1844214;75;21140;-57
2021/04/02 05:19:55;;;;;;;16.07;9.50;;;;;;;12.36;50.29;99399.31;1788095;78;21393;-56
2021/04/02 05:22:22;;;;;;;15.95;10.65;;;;;;;12.39;50.04;99400.31;1811261;77;21832;-54
2021/04/02 05:24:51;;;;;;;21.37;10.40;;;;;;;12.40;49.91;99403.77;1807639;78;21178;-54
2021/04/02 05:27:20;;;;;;;15.68;10.18;;;;;;;12.39;49.89;99409.55;1780595;78;21186;-55
2021/04/02 05:29:47;;;;;;;18.62;10.35;;;;;;;12.35;50.08;99406.87;1779897;78;21128;-56
2021/04/02 05:32:15;;;;;;;14.53;10.03;;;;;;;12.37;50.07;99410.20;1774473;78;21249;-56
2021/04/02 05:34:43;;;;;;;20.97;11.63;;;;;;;12.43;50.06;99399.50;1775648;80;21057;-56
2021/04/02 05:37:13;;;;;;;21.33;10.00;;;;;;;12.51;49.82;99401.33;1796489;79;21667;-56
2021/04/02 05:39:41;;;;;;;14.98;9.75;;;;;;;12.53;49.67;99408.11;1790214;79;21206;-56
2021/04/02 05:42:12;;;;;;;17.27;10.53;;;;;;;12.55;49.58;99413.23;1788071;77;21245;-57
2021/04/02 05:44:39;;;;;;;18.30;10.55;;;;;;;12.55;49.46;99407.45;1763393;79;22122;-56
2021/04/02 05:47:09;;;;;;;22.70;10.80;;;;;;;12.56;49.32;99410.94;1795285;78;21171;-55
2021/04/02 05:49:37;;;;;;;17.00;10.30;;;;;;;12.57;49.21;99414.71;1794772;79;21168;-55
2021/04/02 05:52:08;;;;;;;14.68;10.40;;;;;;;12.58;49.22;99406.33;1790463;79;21243;-57
2021/04/02 05:54:37;;;;;;;16.32;10.98;;;;;;;12.59;49.19;99406.64;1754476;79;21195;-57
2021/04/02 05:57:07;;;;;;;19.00;11.50;;;;;;;12.60;49.10;99398.56;1796462;78;21256;-56
2021/04/02 05:59:37;;;;;;;16.65;10.30;;;;;;;12.61;49.15;99384.39;1793386;79;21208;-56
2021/04/02 06:02:05;;;;;;;16.77;10.05;;;;;;;12.67;49.35;99361.80;1762003;80;21195;-57
2021/04/02 06:04:32;;;;;;;21.35;10.40;;;;;;;12.71;49.50;99359.19;1800556;79;21198;-55
2021/04/02 06:07:00;;;;;;;17.27;10.90;;;;;;;12.77;49.60;99349.78;1771008;77;21179;-56
2021/04/02 06:09:27;;;;;;;21.48;10.72;;;;;;;12.82;49.64;99352.26;1768889;79;21207;-56
2021/04/02 06:11:55;;;;;;;16.27;10.45;;;;;;;12.87;49.55;99347.00;1786409;78;21520;-56
2021/04/02 06:14:22;;;;;;;17.23;10.15;;;;;;;12.88;49.30;99338.08;1798135;78;21200;-56
2021/04/02 06:16:51;;;;;;;19.17;11.30;;;;;;;12.88;49.30;99334.11;1786082;79;21478;-56
2021/04/02 06:19:18;;;;;;;15.60;11.15;;;;;;;12.91;49.53;99329.83;1787818;78;21187;-57
2021/04/02 06:21:55;;;;;;;22.02;12.07;;;;;;;12.91;49.57;99329.36;1786190;79;21186;-73
2021/04/02 06:24:41;;;;;;;20.25;11.28;;;;;;;12.90;49.51;99317.64;1761636;79;21243;-56
2021/04/02 06:27:12;;;;;;;16.35;11.55;;;;;;;12.86;49.56;99317.14;1787974;79;22669;-55
2021/04/02 06:29:42;;;;;;;16.00;9.68;;;;;;;12.78;50.15;99343.53;1793760;79;21159;-57
2021/04/02 06:32:18;;;;;;;14.18;9.43;;;;;;;12.72;50.13;99348.94;1762655;79;21199;-57
2021/04/02 06:34:48;;;;;;;19.32;10.15;;;;;;;12.68;52.19;99355.55;1807509;77;21231;-58
2021/04/02 06:37:17;;;;;;;19.37;11.78;;;;;;;12.62;53.59;99357.50;1810073;77;21189;-57
2021/04/02 06:39:51;;;;;;;17.00;9.75;;;;;;;12.59;54.56;99359.14;1774246;79;21737;-58
2021/04/02 06:42:32;;;;;;;17.73;10.53;;;;;;;12.57;54.51;99365.08;1782850;78;21137;-59
2021/04/02 06:45:02;;;;;;;17.25;11.48;;;;;;;12.52;55.01;99370.83;1758723;80;21609;-56
2021/04/02 06:47:37;;;;;;;19.10;11.93;;;;;;;12.44;55.76;99376.92;1783696;78;21182;-58
2021/04/02 06:50:21;;;;;;;15.07;10.97;;;;;;;12.36;56.42;99383.48;1774682;78;21190;-59
2021/04/02 06:52:53;;;;;;;21.68;11.78;;;;;;;12.28;57.07;99399.27;1783882;78;21203;-58
2021/04/02 06:55:23;;;;;;;17.55;11.18;;;;;;;12.20;57.30;99411.91;1786457;78;21197;-60
2021/04/02 06:57:54;;;;;;;22.10;11.40;;;;;;;12.13;58.37;99420.63;1780517;78;21227;-58
2021/04/02 07:00:24;;;;;;;22.67;11.73;;;;;;;12.04;59.16;99431.63;1807629;77;21254;-64
2021/04/02 07:02:52;;;;;;;19.57;11.95;;;;;;;11.96;59.52;99437.66;1782472;78;21535;-63
2021/04/02 07:05:22;;;;;;;17.40;10.80;;;;;;;11.95;59.71;99440.45;1806008;78;21407;-63
2021/04/02 07:08:06;;;;;;;21.40;12.82;;;;;;;12.01;59.74;99441.97;1807431;77;21172;-66
2021/04/02 07:10:37;;;;;;;18.98;11.68;;;;;;;12.15;60.04;99439.75;1812101;77;21168;-62
2021/04/02 07:13:06;;;;;;;23.15;12.88;;;;;;;12.19;59.97;99439.79;1807590;78;22277;-56
2021/04/02 07:15:35;;;;;;;19.52;12.58;;;;;;;12.19;59.65;99435.84;1805181;78;22303;-59
2021/04/02 07:18:06;;;;;;;18.35;12.65;;;;;;;12.19;60.04;99433.20;1798125;77;21626;-58
2021/04/02 07:20:34;;;;;;;24.95;13.60;;;;;;;12.21;60.05;99437.81;1786497;79;21208;-58
2021/04/02 07:23:02;;;;;;;23.92;11.83;;;;;;;12.22;59.62;99440.77;1801568;77;21497;-56
2021/04/02 07:25:31;;;;;;;18.27;11.90;;;;;;;12.24;59.77;99449.38;1782478;78;21290;-57
2021/04/02 07:27:59;;;;;;;19.45;12.73;;;;;;;12.26;59.80;99450.86;1771451;77;21203;-58
2021/04/02 07:30:30;;;;;;;23.98;13.90;;;;;;;12.25;59.75;99453.65;1810953;77;21144;-57
2021/04/02 07:33:04;;;;;;;18.07;13.35;;;;;;;12.21;60.06;99458.91;1810877;77;21180;-57
2021/04/02 07:35:31;;;;;;;24.32;13.50;;;;;;;12.23;60.41;99457.76;1802158;77;21217;-57
2021/04/02 07:38:00;;;;;;;20.27;14.55;;;;;;;12.30;60.22;99455.83;1813201;77;21503;-60
2021/04/02 07:40:31;;;;;;;21.73;14.10;;;;;;;12.32;59.79;99452.03;1809804;77;21189;-59
2021/04/02 07:43:02;;;;;;;22.05;13.93;;;;;;;12.36;59.83;99453.39;1803534;78;21211;-59
2021/04/02 07:45:32;;;;;;;22.98;13.90;;;;;;;12.37;59.99;99457.70;1781273;78;21211;-59
2021/04/02 07:48:23;;;;;;;23.90;14.40;;;;;;;12.38;59.83;99461.97;1810399;77;21190;-59
2021/04/02 07:50:54;;;;;;;17.67;13.08;;;;;;;12.36;59.73;99466.58;1778762;78;21198;-59
2021/04/02 07:56:35;;;;;;;21.57;14.15;;;;;;;12.27;60.77;99466.19;1797526;77;22844;-66
2021/04/02 07:59:05;;;;;;;22.30;14.93;;;;;;;12.30;60.79;99469.83;1738334;80;21183;-65
2021/04/02 08:01:32;;;;;;;24.43;14.73;;;;;;;12.43;60.83;99476.02;1767982;78;21354;-65
2021/04/02 08:04:02;;;;;;;20.60;15.25;;;;;;;12.45;60.89;99484.09;1737340;80;21194;-67
2021/04/02 08:06:36;;;;;;;20.88;15.03;;;;;;;12.41;61.03;99489.86;1739463;80;21226;-65
2021/04/02 08:09:07;;;;;;;18.73;10.48;;;;;;;12.39;62.11;99495.76;1718535;82;21243;-65
2021/04/02 08:11:37;;;;;;;14.98;9.03;;;;;;;12.17;63.88;99507.19;1690936;82;22633;-65
2021/04/02 08:14:11;;;;;;;15.48;8.90;;;;;;;11.85;64.83;99508.58;1692736;82;21247;-65
2021/04/02 08:16:41;;;;;;;18.35;9.28;;;;;;;11.59;65.24;99507.19;1691509;82;21226;-66
2021/04/02 08:19:33;;;;;;;20.80;10.10;;;;;;;11.30;66.25;99514.81;1720691;81;21195;-68
2021/04/02 08:22:10;;;;;;;16.75;9.23;;;;;;;11.02;67.42;99514.01;1718630;81;21156;-67
2021/04/02 08:24:44;;;;;;;14.87;8.80;;;;;;;10.76;68.22;99520.45;1716147;81;21112;-65
2021/04/02 08:27:15;;;;;;;21.12;9.50;;;;;;;10.65;68.73;99515.38;1713234;81;21622;-64
2021/04/02 08:29:45;;;;;;;16.77;10.03;;;;;;;10.52;69.40;99509.95;1717435;82;21506;-65
2021/04/02 08:32:15;;;;;;;12.80;8.58;;;;;;;10.38;69.62;99516.98;1718060;82;21186;-64
2021/04/02 08:34:43;;;;;;;13.25;8.20;;;;;;;10.28;70.22;99511.70;1720434;82;21184;-65
2021/04/02 08:37:14;;;;;;;13.85;7.67;;;;;;;10.23;70.16;99514.75;1716287;81;21192;-65
2021/04/02 08:39:41;;;;;;;19.27;8.03;;;;;;;10.14;70.47;99518.25;1713107;81;21199;-64
2021/04/02 08:42:10;;;;;;;12.13;7.37;;;;;;;10.04;70.81;99519.57;1680523;82;21206;-65
2021/04/02 08:44:46;;;;;;;11.65;6.35;;;;;;;10.05;71.13;99515.14;1682250;82;21202;-65
2021/04/02 08:47:16;;;;;;;12.88;6.60;;;;;;;10.04;70.89;99524.01;1687676;83;21789;-64
2021/04/02 08:49:52;;;;;;;12.35;6.40;;;;;;;9.95;71.06;99524.38;1703844;83;21187;-64
2021/04/02 08:52:26;;;;;;;11.20;5.90;;;;;;;9.86;71.21;99527.33;1726617;80;21216;-64
2021/04/02 08:55:01;;;;;;;12.15;6.47;;;;;;;9.86;71.24;99531.27;1686407;83;21659;-63
2021/04/02 08:57:31;;;;;;;11.93;5.95;;;;;;;9.86;71.24;99527.82;1715133;80;22235;-64
2021/04/02 09:00:00;;;;;;;14.33;7.60;;;;;;;9.81;71.16;99525.60;1746753;80;21164;-64
2021/04/02 09:02:29;;;;;;;15.15;6.87;;;;;;;9.75;70.86;99530.12;1738393;80;21100;-63
2021/04/02 09:04:57;;;;;;;9.25;5.15;;;;;;;9.70;70.72;99524.45;1738605;80;21204;-64
2021/04/02 09:07:25;;;;;;;12.93;6.65;;;;;;;9.67;70.52;99522.91;1684344;82;21226;-63
2021/04/02 09:09:52;;;;;;;9.55;5.20;;;;;;;9.62;70.33;99518.56;1739289;80;21926;-64
2021/04/02 09:12:21;;;;;;;11.65;5.03;;;;;;;9.56;70.45;99520.91;1742059;80;21501;-64
2021/04/02 09:14:50;;;;;;;10.15;4.17;;;;;;;9.43;70.35;99518.08;1700646;83;21197;-64
2021/04/02 09:17:25;;;;;;;8.73;4.53;;;;;;;9.39;70.26;99525.04;1738777;80;21741;-65
2021/04/02 09:19:54;;;;;;;10.37;4.43;;;;;;;9.33;70.21;99517.23;1697624;82;21852;-65
2021/04/02 09:22:22;;;;;;;7.80;3.85;;;;;;;9.24;70.19;99520.66;1741908;80;22351;-65
2021/04/02 09:24:50;;;;;;;9.08;4.05;;;;;;;9.11;70.63;99524.83;1748393;80;21112;-63
2021/04/02 09:27:21;;;;;;;9.93;4.67;;;;;;;9.01;70.45;99531.39;1742908;80;21160;-66
2021/04/02 09:29:56;;;;;;;6.42;3.42;;;;;;;9.02;70.48;99529.59;1744319;80;21426;-68
2021/04/02 09:32:27;;;;;;;8.58;3.27;;;;;;;8.95;70.10;99539.79;1717246;80;21587;-66
2021/04/02 09:35:00;;;;;;;7.25;2.33;;;;;;;8.83;70.37;99538.23;1727173;80;21175;-67
2021/04/02 09:37:28;;;;;;;7.40;3.42;;;;;;;8.74;69.71;99545.93;1723366;80;21108;-66
2021/04/02 09:40:03;;;;;;;7.35;2.85;;;;;;;8.72;70.08;99549.17;1719261;80;22014;-64
2021/04/02 09:42:33;;;;;;;;;;;;;;;8.62;70.14;99558.77;1705383;82;21199;-66
2021/04/02 09:45:04;;;;;;;5.47;2.22;;;;;;;8.48;70.27;99556.50;1704577;82;20271;-64
2021/04/02 09:47:43;;;;;;;5.85;1.95;;;;;;;8.38;69.99;99557.22;1740210;80;22235;-65
2021/04/02 09:50:12;;;;;;;4.17;1.12;;;;;;;8.31;69.96;99556.09;1713509;80;21210;-65
2021/04/02 09:52:43;;;;;;;4.15;1.20;;;;;;;8.17;70.03;99557.25;1737945;80;21171;-64
2021/04/02 09:55:11;;;;;;;3.42;0.90;;;;;;;8.08;70.06;99557.99;1711992;80;21987;-65
2021/04/02 09:57:39;;;;;;;3.90;1.45;;;;;;;8.09;70.14;99560.16;1749289;80;21209;-66
2021/04/02 10:00:09;;;;;;;7.20;1.37;;;;;;;8.05;70.08;99543.01;1722094;80;21643;-64
2021/04/02 10:02:38;;;;;;;3.50;1.10;;;;;;;8.03;70.35;99558.86;1747158;80;21212;-67
2021/04/02 10:05:07;;;;;;;3.87;1.20;;;;;;;7.98;70.46;99555.33;1746667;80;21199;-65
2021/04/02 10:07:35;;;;;;;3.65;1.10;;;;;;;8.03;70.28;99561.96;1743894;80;22280;-66
2021/04/02 10:10:05;;;;;;;3.52;1.30;;;;;;;8.07;70.28;99565.98;1748658;80;21175;-66
2021/04/02 10:12:33;;;;;;;5.28;1.98;;;;;;;8.05;70.37;99560.04;1718374;80;21224;-64
2021/04/02 10:15:04;;;;;;;3.98;1.52;;;;;;;8.00;70.40;99563.89;1747416;80;21210;-66
2021/04/02 10:17:32;;;;;;;5.05;2.30;;;;;;;8.03;70.50;99565.41;1750893;80;21665;-65
2021/04/02 10:20:01;;;;;;;5.53;2.10;;;;;;;8.11;70.33;99556.92;1755404;80;21192;-64
2021/04/02 10:22:31;;;;;;;5.22;1.98;;;;;;;8.12;70.03;99561.19;1695074;83;21168;-66
2021/04/02 10:24:59;;;;;;;3.45;1.27;;;;;;;8.07;70.19;99558.97;1674349;83;21233;-66
2021/04/02 10:27:26;;;;;;;4.35;1.22;;;;;;;8.05;70.03;99560.86;1711105;82;21200;-66
2021/04/02 10:29:54;;;;;;;4.20;1.98;;;;;;;8.03;69.91;99565.89;1682125;83;21487;-67
2021/04/02 10:32:24;;;;;;;4.50;1.50;;;;;;;8.07;69.74;99568.14;1694700;82;21256;-65
2021/04/02 10:34:53;;;;;;;4.55;1.85;;;;;;;8.08;69.43;99575.02;1684663;83;21167;-65
2021/04/02 10:37:20;;;;;;;4.58;1.42;;;;;;;8.07;69.42;99576.45;1680667;83;21176;-68
2021/04/02 10:39:48;;;;;;;3.90;1.45;;;;;;;8.03;69.57;99564.58;1705667;82;21172;-65
2021/04/02 10:42:15;;;;;;;4.90;2.15;;;;;;;8.05;70.15;99570.52;1712241;82;21230;-66
2021/04/02 10:44:44;;;;;;;4.95;2.00;;;;;;;8.13;69.63;99578.58;1713160;82;21259;-65
2021/04/02 10:47:12;;;;;;;4.00;1.55;;;;;;;8.14;69.26;99583.70;1684363;83;21203;-65
2021/04/02 10:49:40;;;;;;;3.65;1.10;;;;;;;8.08;69.17;99584.69;1685930;83;21556;-65
2021/04/02 10:52:08;;;;;;;5.22;1.30;;;;;;;8.01;69.14;99590.91;1685852;83;21445;-65
2021/04/02 10:54:36;;;;;;;3.72;1.35;;;;;;;8.02;69.49;99591.27;1714763;82;22053;-64
2021/04/02 10:57:04;;;;;;;2.95;0.95;;;;;;;7.98;69.55;99591.16;1714445;82;22766;-66
2021/04/02 10:59:32;;;;;;;3.20;0.70;;;;;;;7.89;69.70;99585.38;1660594;83;21623;-66
2021/04/02 11:02:00;;;;;;;2.83;1.00;;;;;;;7.84;69.04;99590.97;1681373;83;21199;-65
2021/04/02 11:04:28;;;;;;;2.37;0.85;;;;;;;7.87;69.00;99592.05;1690637;82;21593;-65
2021/04/02 11:06:55;;;;;;;4.65;1.50;;;;;;;7.80;69.34;99596.95;1708943;82;21199;-65
2021/04/02 11:09:24;;;;;;;4.25;0.90;;;;;;;7.70;69.35;99582.08;1709078;82;21203;-66
2021/04/02 11:11:52;;;;;;;1.82;0.50;;;;;;;7.63;68.79;99597.45;1714896;82;21570;-64
2021/04/02 11:14:20;;;;;;;1.42;0.37;;;;;;;7.62;68.69;99588.78;1716300;82;21128;-65
2021/04/02 11:16:47;;;;;;;3.30;0.60;;;;;;;7.47;69.01;99595.25;1730804;82;21646;-65
2021/04/02 11:19:14;;;;;;;1.37;0.30;;;;;;;7.37;69.08;99608.22;1713390;82;21157;-65
2021/04/02 11:21:42;;;;;;;1.75;0.33;;;;;;;7.32;69.05;99615.61;1690359;82;21131;-66
2021/04/02 11:24:10;;;;;;;2.15;0.50;;;;;;;7.20;68.79;99612.17;1698629;82;21313;-65
2021/04/02 11:26:38;;;;;;;1.77;0.53;;;;;;;7.15;69.32;99614.80;1685554;83;21231;-65
2021/04/02 11:29:05;;;;;;;1.42;0.40;;;;;;;7.09;68.97;99617.40;1692984;83;21200;-65
2021/04/02 11:31:34;;;;;;;2.27;0.40;;;;;;;7.10;68.81;99599.45;1692082;83;21201;-65
2021/04/02 11:34:03;;;;;;;1.47;0.33;;;;;;;7.05;68.68;99616.81;1696011;83;21398;-65
2021/04/02 11:36:30;;;;;;;1.25;0.33;;;;;;;7.03;68.81;99616.59;1694095;83;21152;-65
2021/04/02 11:38:59;;;;;;;1.60;0.30;;;;;;;7.08;68.62;99623.61;1697015;83;21441;-64
2021/04/02 11:41:27;;;;;;;2.08;0.60;;;;;;;7.12;68.41;99627.63;1665485;84;21698;-64
2021/04/02 11:43:54;;;;;;;1.42;0.40;;;;;;;7.06;68.47;99624.17;1696695;83;21143;-64
2021/04/02 11:46:22;;;;;;;1.67;0.60;;;;;;;7.00;68.86;99609.80;1697648;83;22554;-66
2021/04/02 11:48:50;;;;;;;3.95;0.70;;;;;;;6.99;68.83;99613.84;1668332;84;21207;-66
2021/04/02 11:51:18;;;;;;;4.37;0.90;;;;;;;6.99;69.35;99637.38;1693357;83;21206;-64
2021/04/02 11:53:45;;;;;;;1.57;0.53;;;;;;;6.94;69.98;99639.52;1661894;83;21182;-67
2021/04/02 11:56:13;;;;;;;2.70;0.80;;;;;;;6.96;69.92;99642.84;1660841;84;21564;-64
2021/04/02 11:58:41;;;;;;;5.17;1.20;;;;;;;6.99;69.76;99639.55;1691322;81;21501;-64
2021/04/02 12:01:08;;;;;;;2.60;0.80;;;;;;;6.98;69.61;99638.34;1695170;81;21227;-65
2021/04/02 12:03:35;;;;;;;2.87;0.70;;;;;;;6.86;69.11;99646.17;1715701;81;21188;-65